PWSweather.com
Personal Weather Stations
Station Observations
CANDIOTINO
Barrio Candioti Norte, Santa FeAR 3000

Barrio Candioti NorteSanta FeAR 3000

Lat: -31.632778, Lon: -60.695556

Elevation: 69

Station Type: WH-1081

http://www.eltiempoensantafe.com.ar

High Low Average
Temperature 82.6°F28.1°C 68.9°F20.5°C 73.2°F22.9°C
Dew Point 69.2°F20.7°C 65.7°F18.7°C 67.8°F19.9°C
Winds 6.9 mph 11.1 kmh Calm Calm 3.0 mph E4.8 kmh E
Wind Gusts 11.4 mph18.3 kmh 2.2 mph3.5 kmh 7.0 mph11.3 kmh
Humidity 95% 59% 84%
Pressure 30.02 in1016.6 mb 29.87 in1011.5 mb -
Precipitation 0.00 in0.0 mm - -
Hour Temp Dew Point Humidity Winds Wind Gusts Pressure Precip Precip Rate Daily Precip Total
12:00 AM 70.2°F21.2°C 67.1°F19.5°C 90% 0.7 mph SE1.1 kmh SE 3.1 mph5.0 kmh 29.96 in1014.6 mb 0.00 in0.0 mm 0.00 in0.0 mm 0.00 in0.0 mm
12:15 AM 70.5°F21.4°C 67.2°F19.6°C 89% 3.1 mph SE5.0 kmh SE 3.8 mph6.1 kmh 29.96 in1014.6 mb 0.00 in0.0 mm 0.00 in0.0 mm 0.00 in0.0 mm
12:30 AM 70.7°F21.5°C 67.3°F19.6°C 89% Calm Calm 2.2 mph3.5 kmh 29.96 in1014.6 mb 0.00 in0.0 mm 0.00 in0.0 mm 0.00 in0.0 mm
12:45 AM 70.5°F21.4°C 66.8°F19.3°C 88% 2.2 mph SSE3.5 kmh SSE 3.8 mph6.1 kmh 29.95 in1014.2 mb 0.00 in0.0 mm 0.00 in0.0 mm 0.00 in0.0 mm
01:00 AM 70.3°F21.3°C 66.7°F19.3°C 88% 1.6 mph SSE2.6 kmh SSE 2.2 mph3.5 kmh 29.96 in1014.6 mb 0.00 in0.0 mm 0.00 in0.0 mm 0.00 in0.0 mm
01:15 AM 70.3°F21.3°C 66.7°F19.3°C 88% 1.6 mph S2.6 kmh S 3.1 mph5.0 kmh 29.96 in1014.6 mb 0.00 in0.0 mm 0.00 in0.0 mm 0.00 in0.0 mm
01:30 AM 70.3°F21.3°C 67.0°F19.4°C 89% 1.6 mph S2.6 kmh S 2.2 mph3.5 kmh 29.96 in1014.6 mb 0.00 in0.0 mm 0.00 in0.0 mm 0.00 in0.0 mm
01:45 AM 70.5°F21.4°C 67.2°F19.6°C 89% 2.2 mph SE3.5 kmh SE 6.0 mph9.7 kmh 29.95 in1014.2 mb 0.00 in0.0 mm 0.00 in0.0 mm 0.00 in0.0 mm
02:00 AM 70.7°F21.5°C 67.0°F19.4°C 88% 0.7 mph SE1.1 kmh SE 3.8 mph6.1 kmh 29.96 in1014.6 mb 0.00 in0.0 mm 0.00 in0.0 mm 0.00 in0.0 mm
02:15 AM 70.9°F21.6°C 66.9°F19.4°C 87% 0.7 mph SE1.1 kmh SE 3.8 mph6.1 kmh 29.96 in1014.6 mb 0.00 in0.0 mm 0.00 in0.0 mm 0.00 in0.0 mm
02:30 AM 70.9°F21.6°C 67.2°F19.6°C 88% 2.2 mph SE3.5 kmh SE 4.5 mph7.2 kmh 29.96 in1014.6 mb 0.00 in0.0 mm 0.00 in0.0 mm 0.00 in0.0 mm
02:45 AM 70.7°F21.5°C 66.0°F18.9°C 85% 3.1 mph SE5.0 kmh SE 7.6 mph12.2 kmh 29.94 in1013.9 mb 0.00 in0.0 mm 0.00 in0.0 mm 0.00 in0.0 mm
03:00 AM 70.7°F21.5°C 65.7°F18.7°C 84% 2.2 mph SE3.5 kmh SE 6.0 mph9.7 kmh 29.96 in1014.6 mb 0.00 in0.0 mm 0.00 in0.0 mm 0.00 in0.0 mm
03:15 AM 70.7°F21.5°C 65.7°F18.7°C 84% 1.6 mph SE2.6 kmh SE 6.9 mph11.1 kmh 29.96 in1014.6 mb 0.00 in0.0 mm 0.00 in0.0 mm 0.00 in0.0 mm
03:30 AM 70.3°F21.3°C 66.0°F18.9°C 86% 3.1 mph SE5.0 kmh SE 4.5 mph7.2 kmh 29.95 in1014.2 mb 0.00 in0.0 mm 0.00 in0.0 mm 0.00 in0.0 mm
03:45 AM 70.0°F21.1°C 66.3°F19.1°C 88% 2.2 mph SE3.5 kmh SE 7.6 mph12.2 kmh 29.94 in1013.9 mb 0.00 in0.0 mm 0.00 in0.0 mm 0.00 in0.0 mm
04:00 AM 69.8°F21.0°C 66.8°F19.3°C 90% 2.2 mph SE3.5 kmh SE 5.4 mph8.7 kmh 29.94 in1013.9 mb 0.00 in0.0 mm 0.00 in0.0 mm 0.00 in0.0 mm
04:15 AM 69.6°F20.9°C 67.5°F19.7°C 93% 3.1 mph ESE5.0 kmh ESE 8.3 mph13.4 kmh 29.93 in1013.5 mb 0.00 in0.0 mm 0.00 in0.0 mm 0.00 in0.0 mm
04:30 AM 69.6°F20.9°C 67.9°F19.9°C 94% 3.1 mph SE5.0 kmh SE 6.9 mph11.1 kmh 29.93 in1013.5 mb 0.00 in0.0 mm 0.00 in0.0 mm 0.00 in0.0 mm
04:45 AM 69.4°F20.8°C 67.7°F19.8°C 94% 3.8 mph SE6.1 kmh SE 9.8 mph15.8 kmh 29.91 in1012.9 mb 0.00 in0.0 mm 0.00 in0.0 mm 0.00 in0.0 mm
05:00 AM 69.1°F20.6°C 67.6°F19.8°C 95% 3.1 mph SSE5.0 kmh SSE 10.7 mph17.2 kmh 29.92 in1013.2 mb 0.00 in0.0 mm 0.00 in0.0 mm 0.00 in0.0 mm
05:15 AM 69.1°F20.6°C 67.6°F19.8°C 95% 5.4 mph SE8.7 kmh SE 9.8 mph15.8 kmh 29.92 in1013.2 mb 0.00 in0.0 mm 0.00 in0.0 mm 0.00 in0.0 mm
05:30 AM 69.1°F20.6°C 67.6°F19.8°C 95% 3.8 mph SE6.1 kmh SE 8.3 mph13.4 kmh 29.93 in1013.5 mb 0.00 in0.0 mm 0.00 in0.0 mm 0.00 in0.0 mm
05:45 AM 69.1°F20.6°C 67.6°F19.8°C 95% 6.9 mph ESE11.1 kmh ESE 9.8 mph15.8 kmh 29.93 in1013.5 mb 0.00 in0.0 mm 0.00 in0.0 mm 0.00 in0.0 mm
06:00 AM 69.1°F20.6°C 67.6°F19.8°C 95% 4.5 mph ESE7.2 kmh ESE 9.8 mph15.8 kmh 29.93 in1013.5 mb 0.00 in0.0 mm 0.00 in0.0 mm 0.00 in0.0 mm
06:15 AM 69.1°F20.6°C 67.6°F19.8°C 95% 6.0 mph E9.7 kmh E 9.2 mph14.8 kmh 29.93 in1013.5 mb 0.00 in0.0 mm 0.00 in0.0 mm 0.00 in0.0 mm
06:30 AM 69.1°F20.6°C 67.6°F19.8°C 95% 6.0 mph SE9.7 kmh SE 9.8 mph15.8 kmh 29.94 in1013.9 mb 0.00 in0.0 mm 0.00 in0.0 mm 0.00 in0.0 mm
06:45 AM 69.3°F20.7°C 67.8°F19.9°C 95% 3.1 mph E5.0 kmh E 7.6 mph12.2 kmh 29.95 in1014.2 mb 0.00 in0.0 mm 0.00 in0.0 mm 0.00 in0.0 mm
07:00 AM 69.1°F20.6°C 67.6°F19.8°C 95% 4.5 mph E7.2 kmh E 10.7 mph17.2 kmh 29.96 in1014.6 mb 0.00 in0.0 mm 0.00 in0.0 mm 0.00 in0.0 mm
07:15 AM 69.1°F20.6°C 67.3°F19.6°C 94% 3.1 mph E5.0 kmh E 11.4 mph18.3 kmh 29.97 in1014.9 mb 0.00 in0.0 mm 0.00 in0.0 mm 0.00 in0.0 mm
07:30 AM 69.1°F20.6°C 67.3°F19.6°C 94% 2.2 mph E3.5 kmh E 9.2 mph14.8 kmh 29.98 in1015.2 mb 0.00 in0.0 mm 0.00 in0.0 mm 0.00 in0.0 mm
07:45 AM 68.9°F20.5°C 67.1°F19.5°C 94% 2.2 mph E3.5 kmh E 7.6 mph12.2 kmh 29.97 in1014.9 mb 0.00 in0.0 mm 0.00 in0.0 mm 0.00 in0.0 mm
08:00 AM 69.1°F20.6°C 67.3°F19.6°C 94% 3.8 mph ESE6.1 kmh ESE 6.9 mph11.1 kmh 29.98 in1015.2 mb 0.00 in0.0 mm 0.00 in0.0 mm 0.00 in0.0 mm
08:15 AM 69.1°F20.6°C 67.3°F19.6°C 94% 3.1 mph E5.0 kmh E 8.3 mph13.4 kmh 29.98 in1015.2 mb 0.00 in0.0 mm 0.00 in0.0 mm 0.00 in0.0 mm
08:30 AM 69.1°F20.6°C 67.3°F19.6°C 94% 3.8 mph E6.1 kmh E 7.6 mph12.2 kmh 29.99 in1015.6 mb 0.00 in0.0 mm 0.00 in0.0 mm 0.00 in0.0 mm
08:45 AM 68.9°F20.5°C 67.1°F19.5°C 94% 2.2 mph ESE3.5 kmh ESE 7.6 mph12.2 kmh 30.00 in1015.9 mb 0.00 in0.0 mm 0.00 in0.0 mm 0.00 in0.0 mm
09:00 AM 69.1°F20.6°C 67.3°F19.6°C 94% 3.8 mph E6.1 kmh E 8.3 mph13.4 kmh 30.01 in1016.3 mb 0.00 in0.0 mm 0.00 in0.0 mm 0.00 in0.0 mm
09:15 AM 69.4°F20.8°C 68.0°F20.0°C 95% 2.2 mph E3.5 kmh E 5.4 mph8.7 kmh 30.01 in1016.3 mb 0.00 in0.0 mm 0.00 in0.0 mm 0.00 in0.0 mm
09:30 AM 69.4°F20.8°C 67.7°F19.8°C 94% 2.2 mph E3.5 kmh E 7.6 mph12.2 kmh 30.02 in1016.6 mb 0.00 in0.0 mm 0.00 in0.0 mm 0.00 in0.0 mm
09:45 AM 69.6°F20.9°C 67.9°F19.9°C 94% 4.5 mph E7.2 kmh E 8.3 mph13.4 kmh 30.01 in1016.3 mb 0.00 in0.0 mm 0.00 in0.0 mm 0.00 in0.0 mm
10:00 AM 69.8°F21.0°C 67.7°F19.8°C 93% 4.5 mph NE7.2 kmh NE 7.6 mph12.2 kmh 30.01 in1016.3 mb 0.00 in0.0 mm 0.00 in0.0 mm 0.00 in0.0 mm
10:15 AM 69.8°F21.0°C 67.4°F19.7°C 92% 2.2 mph E3.5 kmh E 6.9 mph11.1 kmh 30.01 in1016.3 mb 0.00 in0.0 mm 0.00 in0.0 mm 0.00 in0.0 mm
10:30 AM 70.0°F21.1°C 67.6°F19.8°C 92% 2.2 mph E3.5 kmh E 8.3 mph13.4 kmh 30.02 in1016.6 mb 0.00 in0.0 mm 0.00 in0.0 mm 0.00 in0.0 mm
10:45 AM 70.0°F21.1°C 67.6°F19.8°C 92% 1.6 mph E2.6 kmh E 6.0 mph9.7 kmh 30.02 in1016.6 mb 0.00 in0.0 mm 0.00 in0.0 mm 0.00 in0.0 mm
11:00 AM 70.0°F21.1°C 67.3°F19.6°C 91% 0.7 mph E1.1 kmh E 6.9 mph11.1 kmh 30.02 in1016.6 mb 0.00 in0.0 mm 0.00 in0.0 mm 0.00 in0.0 mm
11:15 AM 70.0°F21.1°C 67.3°F19.6°C 91% 1.6 mph E2.6 kmh E 6.9 mph11.1 kmh 30.02 in1016.6 mb 0.00 in0.0 mm 0.00 in0.0 mm 0.00 in0.0 mm
11:30 AM 70.3°F21.3°C 67.6°F19.8°C 91% 2.2 mph ESE3.5 kmh ESE 4.5 mph7.2 kmh 30.02 in1016.6 mb 0.00 in0.0 mm 0.00 in0.0 mm 0.00 in0.0 mm
11:45 AM 70.7°F21.5°C 68.3°F20.2°C 92% 1.6 mph ESE2.6 kmh ESE 7.6 mph12.2 kmh 30.00 in1015.9 mb 0.00 in0.0 mm 0.00 in0.0 mm 0.00 in0.0 mm
12:00 PM 72.0°F22.2°C 68.2°F20.1°C 88% 3.8 mph E6.1 kmh E 8.3 mph13.4 kmh 30.00 in1015.9 mb 0.00 in0.0 mm 0.00 in0.0 mm 0.00 in0.0 mm
12:15 PM 73.0°F22.8°C 68.3°F20.2°C 85% 2.2 mph E3.5 kmh E 6.0 mph9.7 kmh 30.00 in1015.9 mb 0.00 in0.0 mm 0.00 in0.0 mm 0.00 in0.0 mm
12:30 PM 73.4°F23.0°C 68.7°F20.4°C 85% 1.6 mph E2.6 kmh E 6.9 mph11.1 kmh 29.99 in1015.6 mb 0.00 in0.0 mm 0.00 in0.0 mm 0.00 in0.0 mm
12:45 PM 73.8°F23.2°C 68.0°F20.0°C 82% 3.8 mph NE6.1 kmh NE 8.3 mph13.4 kmh 29.98 in1015.2 mb 0.00 in0.0 mm 0.00 in0.0 mm 0.00 in0.0 mm
01:00 PM 75.0°F23.9°C 68.8°F20.4°C 81% 3.8 mph ENE6.1 kmh ENE 8.3 mph13.4 kmh 29.97 in1014.9 mb 0.00 in0.0 mm 0.00 in0.0 mm 0.00 in0.0 mm
01:15 PM 76.8°F24.9°C 69.1°F20.6°C 77% 2.2 mph NE3.5 kmh NE 7.6 mph12.2 kmh 29.97 in1014.9 mb 0.00 in0.0 mm 0.00 in0.0 mm 0.00 in0.0 mm
01:30 PM 80.2°F26.8°C 68.8°F20.4°C 68% 2.2 mph E3.5 kmh E 6.9 mph11.1 kmh 29.96 in1014.6 mb 0.00 in0.0 mm 0.00 in0.0 mm 0.00 in0.0 mm
01:45 PM 79.5°F26.4°C 67.2°F19.6°C 66% 3.8 mph NE6.1 kmh NE 7.6 mph12.2 kmh 29.95 in1014.2 mb 0.00 in0.0 mm 0.00 in0.0 mm 0.00 in0.0 mm
02:00 PM 78.8°F26.0°C 67.0°F19.4°C 67% 3.8 mph NE6.1 kmh NE 7.6 mph12.2 kmh 29.94 in1013.9 mb 0.00 in0.0 mm 0.00 in0.0 mm 0.00 in0.0 mm
02:15 PM 77.7°F25.4°C 67.2°F19.6°C 70% 3.8 mph ESE6.1 kmh ESE 7.6 mph12.2 kmh 29.93 in1013.5 mb 0.00 in0.0 mm 0.00 in0.0 mm 0.00 in0.0 mm
02:30 PM 78.1°F25.6°C 68.4°F20.2°C 72% 0.7 mph NE1.1 kmh NE 4.5 mph7.2 kmh 29.91 in1012.9 mb 0.00 in0.0 mm 0.00 in0.0 mm 0.00 in0.0 mm
02:45 PM 79.9°F26.6°C 66.7°F19.3°C 64% 2.2 mph ESE3.5 kmh ESE 6.0 mph9.7 kmh 29.91 in1012.9 mb 0.00 in0.0 mm 0.00 in0.0 mm 0.00 in0.0 mm
03:00 PM 79.5°F26.4°C 67.2°F19.6°C 66% 0.7 mph NNE1.1 kmh NNE 6.9 mph11.1 kmh 29.90 in1012.5 mb 0.00 in0.0 mm 0.00 in0.0 mm 0.00 in0.0 mm
03:15 PM 82.2°F27.9°C 68.0°F20.0°C 62% 3.1 mph NE5.0 kmh NE 6.0 mph9.7 kmh 29.89 in1012.2 mb 0.00 in0.0 mm 0.00 in0.0 mm 0.00 in0.0 mm
03:30 PM 80.1°F26.7°C 68.6°F20.3°C 68% 1.6 mph E2.6 kmh E 9.2 mph14.8 kmh 29.89 in1012.2 mb 0.00 in0.0 mm 0.00 in0.0 mm 0.00 in0.0 mm
03:45 PM 81.1°F27.3°C 67.9°F19.9°C 64% 5.4 mph N8.7 kmh N 8.3 mph13.4 kmh 29.89 in1012.2 mb 0.00 in0.0 mm 0.00 in0.0 mm 0.00 in0.0 mm
04:00 PM 82.0°F27.8°C 67.8°F19.9°C 62% 4.5 mph NNE7.2 kmh NNE 7.6 mph12.2 kmh 29.88 in1011.9 mb 0.00 in0.0 mm 0.00 in0.0 mm 0.00 in0.0 mm
04:15 PM 82.2°F27.9°C 68.0°F20.0°C 62% 3.8 mph ENE6.1 kmh ENE 8.3 mph13.4 kmh 29.88 in1011.9 mb 0.00 in0.0 mm 0.00 in0.0 mm 0.00 in0.0 mm
04:30 PM 82.6°F28.1°C 68.8°F20.4°C 63% 2.2 mph ENE3.5 kmh ENE 6.9 mph11.1 kmh 29.88 in1011.9 mb 0.00 in0.0 mm 0.00 in0.0 mm 0.00 in0.0 mm
04:45 PM 82.6°F28.1°C 66.9°F19.4°C 59% 1.6 mph NE2.6 kmh NE 7.6 mph12.2 kmh 29.88 in1011.9 mb 0.00 in0.0 mm 0.00 in0.0 mm 0.00 in0.0 mm
05:00 PM 81.3°F27.4°C 67.6°F19.8°C 63% 2.2 mph ENE3.5 kmh ENE 7.6 mph12.2 kmh 29.89 in1012.2 mb 0.00 in0.0 mm 0.00 in0.0 mm 0.00 in0.0 mm
05:15 PM 81.3°F27.4°C 68.0°F20.0°C 64% 4.5 mph E7.2 kmh E 9.8 mph15.8 kmh 29.88 in1011.9 mb 0.00 in0.0 mm 0.00 in0.0 mm 0.00 in0.0 mm
05:30 PM 78.4°F25.8°C 68.7°F20.4°C 72% 0.7 mph NE1.1 kmh NE 4.5 mph7.2 kmh 29.89 in1012.2 mb 0.00 in0.0 mm 0.00 in0.0 mm 0.00 in0.0 mm
05:45 PM 77.7°F25.4°C 68.4°F20.2°C 73% 1.6 mph ENE2.6 kmh ENE 5.4 mph8.7 kmh 29.87 in1011.5 mb 0.00 in0.0 mm 0.00 in0.0 mm 0.00 in0.0 mm
06:00 PM 79.7°F26.5°C 68.3°F20.2°C 68% 1.6 mph NE2.6 kmh NE 6.0 mph9.7 kmh 29.87 in1011.5 mb 0.00 in0.0 mm 0.00 in0.0 mm 0.00 in0.0 mm
06:15 PM 77.7°F25.4°C 68.4°F20.2°C 73% Calm Calm 4.5 mph7.2 kmh 29.87 in1011.5 mb 0.00 in0.0 mm 0.00 in0.0 mm 0.00 in0.0 mm
06:30 PM 76.1°F24.5°C 68.0°F20.0°C 76% 3.1 mph E5.0 kmh E 4.5 mph7.2 kmh 29.87 in1011.5 mb 0.00 in0.0 mm 0.00 in0.0 mm 0.00 in0.0 mm
06:45 PM 75.4°F24.1°C 68.1°F20.1°C 78% 1.6 mph ESE2.6 kmh ESE 3.8 mph6.1 kmh 29.87 in1011.5 mb 0.00 in0.0 mm 0.00 in0.0 mm 0.00 in0.0 mm
07:00 PM 75.0°F23.9°C 68.5°F20.3°C 80% 1.6 mph ESE2.6 kmh ESE 4.5 mph7.2 kmh 29.88 in1011.9 mb 0.00 in0.0 mm 0.00 in0.0 mm 0.00 in0.0 mm
07:15 PM 74.5°F23.6°C 68.3°F20.2°C 81% Calm Calm 4.5 mph7.2 kmh 29.89 in1012.2 mb 0.00 in0.0 mm 0.00 in0.0 mm 0.00 in0.0 mm
07:30 PM 74.3°F23.5°C 68.5°F20.3°C 82% 1.6 mph E2.6 kmh E 3.1 mph5.0 kmh 29.89 in1012.2 mb 0.00 in0.0 mm 0.00 in0.0 mm 0.00 in0.0 mm
07:45 PM 74.1°F23.4°C 69.0°F20.6°C 84% 1.6 mph E2.6 kmh E 3.8 mph6.1 kmh 29.89 in1012.2 mb 0.00 in0.0 mm 0.00 in0.0 mm 0.00 in0.0 mm
08:00 PM 74.3°F23.5°C 69.2°F20.7°C 84% 0.7 mph ESE1.1 kmh ESE 3.8 mph6.1 kmh 29.89 in1012.2 mb 0.00 in0.0 mm 0.00 in0.0 mm 0.00 in0.0 mm
08:15 PM 74.5°F23.6°C 68.7°F20.4°C 82% Calm Calm 3.1 mph5.0 kmh 29.90 in1012.5 mb 0.00 in0.0 mm 0.00 in0.0 mm 0.00 in0.0 mm
08:30 PM 74.5°F23.6°C 68.3°F20.2°C 81% 3.1 mph SE5.0 kmh SE 4.5 mph7.2 kmh 29.90 in1012.5 mb 0.00 in0.0 mm 0.00 in0.0 mm 0.00 in0.0 mm
08:45 PM 74.3°F23.5°C 68.1°F20.1°C 81% 3.1 mph SE5.0 kmh SE 5.4 mph8.7 kmh 29.90 in1012.5 mb 0.00 in0.0 mm 0.00 in0.0 mm 0.00 in0.0 mm
09:00 PM 74.3°F23.5°C 68.5°F20.3°C 82% 0.7 mph SE1.1 kmh SE 6.9 mph11.1 kmh 29.91 in1012.9 mb 0.00 in0.0 mm 0.00 in0.0 mm 0.00 in0.0 mm
09:15 PM 74.5°F23.6°C 68.7°F20.4°C 82% 0.7 mph SE1.1 kmh SE 4.5 mph7.2 kmh 29.90 in1012.5 mb 0.00 in0.0 mm 0.00 in0.0 mm 0.00 in0.0 mm
09:30 PM 74.5°F23.6°C 69.0°F20.6°C 83% 3.8 mph SE6.1 kmh SE 6.0 mph9.7 kmh 29.90 in1012.5 mb 0.00 in0.0 mm 0.00 in0.0 mm 0.00 in0.0 mm
09:45 PM 74.1°F23.4°C 69.0°F20.6°C 84% 4.5 mph SE7.2 kmh SE 7.6 mph12.2 kmh 29.90 in1012.5 mb 0.00 in0.0 mm 0.00 in0.0 mm 0.00 in0.0 mm
10:00 PM 73.8°F23.2°C 69.0°F20.6°C 85% 3.1 mph SE5.0 kmh SE 7.6 mph12.2 kmh 29.90 in1012.5 mb 0.00 in0.0 mm 0.00 in0.0 mm 0.00 in0.0 mm
10:15 PM 73.4°F23.0°C 69.0°F20.6°C 86% 2.2 mph ESE3.5 kmh ESE 6.9 mph11.1 kmh 29.91 in1012.9 mb 0.00 in0.0 mm 0.00 in0.0 mm 0.00 in0.0 mm
10:30 PM 73.0°F22.8°C 68.3°F20.2°C 85% 1.6 mph ENE2.6 kmh ENE 4.5 mph7.2 kmh 29.92 in1013.2 mb 0.00 in0.0 mm 0.00 in0.0 mm 0.00 in0.0 mm
10:45 PM 72.9°F22.7°C 68.5°F20.3°C 86% 3.1 mph E5.0 kmh E 6.0 mph9.7 kmh 29.92 in1013.2 mb 0.00 in0.0 mm 0.00 in0.0 mm 0.00 in0.0 mm
11:00 PM 72.7°F22.6°C 68.3°F20.2°C 86% 2.2 mph ESE3.5 kmh ESE 6.0 mph9.7 kmh 29.92 in1013.2 mb 0.00 in0.0 mm 0.00 in0.0 mm 0.00 in0.0 mm
11:15 PM 72.7°F22.6°C 68.3°F20.2°C 86% 1.6 mph ESE2.6 kmh ESE 6.0 mph9.7 kmh 29.93 in1013.5 mb 0.00 in0.0 mm 0.00 in0.0 mm 0.00 in0.0 mm
11:30 PM 72.5°F22.5°C 68.4°F20.2°C 87% 2.2 mph ESE3.5 kmh ESE 6.0 mph9.7 kmh 29.93 in1013.5 mb 0.00 in0.0 mm 0.00 in0.0 mm 0.00 in0.0 mm
11:45 PM 72.1°F22.3°C 68.1°F20.1°C 87% 2.2 mph ESE3.5 kmh ESE 6.0 mph9.7 kmh 29.93 in1013.5 mb 0.00 in0.0 mm 0.00 in0.0 mm 0.00 in0.0 mm